Nur fliegen ist schöner ....

Willkommen beim Flugservice Bautzen GmbH

Wir sind eine nach europäischen Richtlinien zugelassene Flugschule und lizenziertes Luftfahrtunternehmen. Bei uns können sie nicht nur Rundflüge über die Oberlausitz oder Sachsen buchen, sondern in unserer Flugschule selber das Fliegen erlernen. Erfahrene Fluglehrer stehen ihnen dabei zur Seite.

Wir bieten Ihnen außerdem spezielle Flüge zur Vermessung oder Fotoflüge für Luftbildaufnahmen an. In Zusammenarbeit mit dem Fallschirmsportclub Dresden und dem Cottbuser Fallschirmsportclub setzen wir am Flugplatz Bautzen und Neuhausen Fallschirmspringer ab.
Schauen sie sich in Ruhe bei uns um und wenn sie Fragen haben oder weitere Informationen benötigen, scheuen sie sich nicht Kontakt mit uns aufzunehmen.

Rundflüge können sie ganz leicht auch online in unserem Shop buchen.

Terminkalender

Letzter Monat Juni 2018 Nächster Monat
Mo Di Mi Do Fr Sa So
week 22 1 2 3
week 23 4 5 6 7 8 9 10
week 24 11 12 13 14 15 16 17
week 25 18 19 20 21 22 23 24
week 26 25 26 27 28 29 30

Flugwetterinfo

[Quelle: ADDS]
METAR
EDDC 200850Z 15006KT 100V200 CAVOK 23/13 Q1023 NOSIG =
TAF
EDDC 200500Z 2006/2106 VRB03KT CAVOK BECMG 2012/2014 25005KT =
SR / SS: 02:46 / 19:21 UTC (EDAB Flugplatz Bautzen 2018-06-20)

Webcam EDAB

Webcam EDAB
Flugservice Bautzen GmbH, Kornmarkt 34, 02625 Bautzen  Telefon: +49 (3591) 211105, Telefax: +49 (3591) 274512, E-Mail:  flugservice(at)fsbautzen.de